Terminal Aerodrome Forecast
Issued by NWS

Home | Current Version | Previous Version | Text Only | Print | Product List | Glossary On
Versions: 1 2 3 4 5 6 7 8 9 10 11 12 13 14 15 16 17 18
444
FTUS43 KOAX 232344
TAFBFF
TAF
KBFF 232344Z 2400/2424 05009KT P6SM OVC012
      TEMPO 2400/2403 4SM -RA BR OVC009
     FM240300 01010KT 1SM BR OVC009
     FM241500 02008KT 4SM BR OVC018
     FM241900 02010KT P6SM OVC025=

USA.gov is the U.S. government's official web portal to all federal, state and local government web resources and services.